createdAt,value
2022-09-21T00:01:50.638Z,4.48
2022-09-21T00:04:20.014Z,4.42
2022-09-21T00:06:49.289Z,4.39
2022-09-21T00:09:19.042Z,4.33
2022-09-21T00:11:50.074Z,4.29
2022-09-21T00:14:19.740Z,4.26
2022-09-21T00:16:49.240Z,4.22
2022-09-21T00:19:19.324Z,4.18
2022-09-21T00:21:48.927Z,4.15
2022-09-21T00:24:18.306Z,4.11
2022-09-21T00:26:49.153Z,4.06
2022-09-21T00:29:18.818Z,4.03
2022-09-21T00:31:48.292Z,4.00
2022-09-21T00:34:18.227Z,3.98
2022-09-21T00:36:47.620Z,3.96
2022-09-21T00:39:17.096Z,3.94
2022-09-21T00:41:46.622Z,3.92
2022-09-21T00:44:32.656Z,3.91
2022-09-21T00:47:08.706Z,3.88
2022-09-21T00:49:38.778Z,3.87
2022-09-21T00:52:09.985Z,3.83
2022-09-21T00:54:45.421Z,3.80
2022-09-21T00:57:17.010Z,3.77
2022-09-21T00:59:48.585Z,3.72
2022-09-21T01:02:18.705Z,3.72
2022-09-21T01:04:49.117Z,3.69
2022-09-21T01:07:24.205Z,3.65
2022-09-21T01:09:59.101Z,3.63
2022-09-21T01:12:50.843Z,3.57
2022-09-21T01:15:38.557Z,3.55
2022-09-21T01:18:19.685Z,3.52
2022-09-21T01:21:23.442Z,3.47
2022-09-21T01:24:31.809Z,3.45
2022-09-21T01:27:47.807Z,3.43
2022-09-21T01:30:21.060Z,3.40
2022-09-21T01:32:55.705Z,3.38
2022-09-21T01:35:31.090Z,3.35
2022-09-21T01:38:05.390Z,3.32
2022-09-21T01:40:40.591Z,3.29
2022-09-21T01:43:16.006Z,3.26
2022-09-21T01:45:53.961Z,3.22
2022-09-21T01:48:26.883Z,3.21
2022-09-21T01:50:59.512Z,3.16
2022-09-21T01:53:36.065Z,3.13
2022-09-21T01:56:14.893Z,3.12
2022-09-21T01:58:53.682Z,3.09
2022-09-21T02:01:29.041Z,3.10
2022-09-21T02:04:03.144Z,3.10
2022-09-21T02:06:33.977Z,3.11
2022-09-21T02:09:03.407Z,3.08
2022-09-21T02:11:32.805Z,3.05
2022-09-21T02:14:02.889Z,3.01
2022-09-21T02:16:39.597Z,2.96
2022-09-21T02:19:16.333Z,2.90
2022-09-21T02:22:05.040Z,2.88
2022-09-21T02:24:43.246Z,2.83
2022-09-21T02:27:29.302Z,2.82
2022-09-21T02:30:08.911Z,2.82
2022-09-21T02:32:51.941Z,2.79
2022-09-21T02:35:33.760Z,2.77
2022-09-21T02:38:12.675Z,2.73
2022-09-21T02:40:51.639Z,2.75
2022-09-21T02:43:29.153Z,2.77
2022-09-21T02:46:05.364Z,2.75
2022-09-21T02:48:42.768Z,2.71
2022-09-21T02:51:19.550Z,2.69
2022-09-21T02:53:51.808Z,2.67
2022-09-21T02:56:21.941Z,2.66
2022-09-21T02:58:56.901Z,2.60
2022-09-21T03:01:28.409Z,2.58
2022-09-21T03:03:59.636Z,2.54
2022-09-21T03:06:32.136Z,2.50
2022-09-21T03:09:01.961Z,2.47
2022-09-21T03:11:31.530Z,2.41
2022-09-21T03:14:00.924Z,2.35
2022-09-21T03:16:30.450Z,2.32
2022-09-21T03:19:09.174Z,2.29
2022-09-21T03:21:43.764Z,2.28
2022-09-21T03:24:34.005Z,2.24
2022-09-21T03:27:03.436Z,2.20
2022-09-21T03:29:33.033Z,2.19
2022-09-21T03:32:03.547Z,2.16
2022-09-21T03:34:34.375Z,2.13
2022-09-21T03:37:07.083Z,2.13
2022-09-21T03:39:37.578Z,2.11
2022-09-21T03:42:07.384Z,2.08
2022-09-21T03:44:37.455Z,2.04
2022-09-21T03:47:07.518Z,2.03
2022-09-21T03:49:38.758Z,2.03
2022-09-21T03:52:08.349Z,2.02
2022-09-21T03:54:37.732Z,2.01
2022-09-21T03:57:08.519Z,2.03
2022-09-21T03:59:37.892Z,2.02
2022-09-21T04:02:07.713Z,1.99
2022-09-21T04:04:38.446Z,1.95
2022-09-21T04:07:07.832Z,1.91
2022-09-21T04:09:37.256Z,1.89
2022-09-21T04:12:07.065Z,1.87
2022-09-21T04:14:36.796Z,1.84
2022-09-21T04:17:06.484Z,1.84
2022-09-21T04:19:37.262Z,1.82
2022-09-21T04:22:06.919Z,1.80
2022-09-21T04:24:36.319Z,1.78
2022-09-21T04:27:06.009Z,1.75
2022-09-21T04:29:35.778Z,1.75
2022-09-21T04:32:06.942Z,1.78
2022-09-21T04:34:39.439Z,1.79
2022-09-21T04:37:11.192Z,1.78
2022-09-21T04:39:40.988Z,1.73
2022-09-21T04:42:11.406Z,1.71
2022-09-21T04:44:40.789Z,1.68
2022-09-21T04:47:10.204Z,1.67
2022-09-21T04:49:40.972Z,1.65
2022-09-21T04:52:10.370Z,1.65
2022-09-21T04:54:39.774Z,1.63
2022-09-21T04:57:09.185Z,1.60
2022-09-21T04:59:38.561Z,1.57
2022-09-21T05:02:07.977Z,1.56
2022-09-21T05:04:38.024Z,1.53
2022-09-21T05:07:08.753Z,1.53
2022-09-21T05:09:55.650Z,1.52
2022-09-21T05:12:25.168Z,1.52
2022-09-21T05:14:55.970Z,1.53
2022-09-21T05:17:25.674Z,1.54
2022-09-21T05:19:55.428Z,1.56
2022-09-21T05:22:26.245Z,1.57
2022-09-21T05:24:55.723Z,1.57
2022-09-21T05:27:25.240Z,1.59
2022-09-21T05:29:55.668Z,1.60
2022-09-21T05:32:33.793Z,1.60
2022-09-21T05:35:10.013Z,1.61
2022-09-21T05:37:52.260Z,1.64
2022-09-21T05:40:22.654Z,1.67
2022-09-21T05:42:52.664Z,1.69
2022-09-21T05:45:23.277Z,1.74
2022-09-21T05:48:06.044Z,1.74
2022-09-21T05:50:49.349Z,1.79
2022-09-21T05:53:51.451Z,1.82
2022-09-21T05:56:46.438Z,1.87
2022-09-21T05:59:52.312Z,1.93
2022-09-21T06:02:45.936Z,1.99
2022-09-21T06:05:17.438Z,2.07
2022-09-21T06:07:46.926Z,2.15
2022-09-21T06:10:18.429Z,2.23
2022-09-21T06:12:47.803Z,2.31
2022-09-21T06:15:17.904Z,2.42
2022-09-21T06:17:47.364Z,2.54
2022-09-21T06:20:17.032Z,2.62
2022-09-21T06:22:46.452Z,2.73
2022-09-21T06:25:18.765Z,2.84
2022-09-21T06:27:48.128Z,2.96
2022-09-21T06:30:17.740Z,3.08
2022-09-21T06:32:47.112Z,3.17
2022-09-21T06:35:16.769Z,3.29
2022-09-21T06:37:46.145Z,3.39
2022-09-21T06:40:17.185Z,3.50
2022-09-21T06:42:46.601Z,3.62
2022-09-21T06:45:16.289Z,3.74
2022-09-21T06:47:48.825Z,3.87
2022-09-21T06:50:18.291Z,3.97
2022-09-21T06:52:48.166Z,4.05
2022-09-21T06:55:19.115Z,4.19
2022-09-21T06:57:50.968Z,4.31
2022-09-21T07:00:20.523Z,4.43
2022-09-21T07:02:50.043Z,4.56
2022-09-21T07:05:19.776Z,4.69
2022-09-21T07:07:53.790Z,4.83
2022-09-21T07:10:25.231Z,4.92
2022-09-21T07:12:54.747Z,5.04
2022-09-21T07:15:25.213Z,5.15
2022-09-21T07:18:05.603Z,5.27
2022-09-21T07:20:35.368Z,5.41
2022-09-21T07:23:14.116Z,5.57
2022-09-21T07:25:46.748Z,5.70
2022-09-21T07:28:16.293Z,5.84
2022-09-21T07:30:45.781Z,5.98
2022-09-21T07:33:15.123Z,6.14
2022-09-21T07:35:53.172Z,6.28
2022-09-21T07:38:22.644Z,6.45
2022-09-21T07:40:53.396Z,6.61
2022-09-21T07:43:22.751Z,6.78
2022-09-21T07:45:56.132Z,6.92
2022-09-21T07:48:25.828Z,7.05
2022-09-21T07:50:57.628Z,7.19
2022-09-21T07:53:27.120Z,7.36
2022-09-21T07:56:05.380Z,7.47
2022-09-21T07:58:54.143Z,7.58
2022-09-21T08:01:24.241Z,7.74
2022-09-21T08:03:56.466Z,7.88
2022-09-21T08:06:30.333Z,8.02
2022-09-21T08:08:59.900Z,8.16
2022-09-21T08:11:33.096Z,8.30
2022-09-21T08:14:04.422Z,8.42
2022-09-21T08:16:34.717Z,8.56
2022-09-21T08:19:05.658Z,8.72
2022-09-21T08:21:35.427Z,8.87
2022-09-21T08:24:05.379Z,8.99
2022-09-21T08:26:36.248Z,9.07
2022-09-21T08:29:06.464Z,9.15
2022-09-21T08:31:36.013Z,9.27
2022-09-21T08:34:05.377Z,9.41
2022-09-21T08:36:34.775Z,9.50
2022-09-21T08:39:04.313Z,9.63
2022-09-21T08:42:06.045Z,9.76
2022-09-21T08:44:43.071Z,9.90
2022-09-21T08:47:20.026Z,10.00
2022-09-21T08:49:55.031Z,10.11
2022-09-21T08:52:27.540Z,10.25
2022-09-21T08:55:02.656Z,10.43
2022-09-21T08:57:35.554Z,10.57
2022-09-21T09:00:15.707Z,10.70
2022-09-21T09:03:12.309Z,10.79
2022-09-21T09:05:52.009Z,10.83
2022-09-21T09:09:02.410Z,10.93
2022-09-21T09:12:11.023Z,11.06
2022-09-21T09:15:16.772Z,11.26
2022-09-21T09:17:57.265Z,11.50
2022-09-21T09:20:34.661Z,11.57
2022-09-21T09:23:16.100Z,11.62
2022-09-21T09:25:51.716Z,11.67
2022-09-21T09:28:34.554Z,11.81
2022-09-21T09:31:19.025Z,12.04
2022-09-21T09:33:59.744Z,12.26
2022-09-21T09:36:57.384Z,12.34
2022-09-21T09:39:23.717Z,12.38
2022-09-21T09:42:33.408Z,12.42
2022-09-21T09:45:49.523Z,12.34
2022-09-21T09:48:51.970Z,12.29
2022-09-21T09:51:23.663Z,12.19
2022-09-21T09:54:01.526Z,12.11
2022-09-21T09:56:33.816Z,12.07
2022-09-21T09:59:12.741Z,12.07
2022-09-21T10:01:46.237Z,12.09
2022-09-21T10:04:19.410Z,12.10
2022-09-21T10:06:48.914Z,12.10
2022-09-21T10:09:28.346Z,12.17
2022-09-21T10:12:06.861Z,12.24
2022-09-21T10:14:39.338Z,12.29
2022-09-21T10:17:09.311Z,12.35
2022-09-21T10:19:39.892Z,12.38
2022-09-21T10:22:17.485Z,12.44
2022-09-21T10:24:51.143Z,12.45
2022-09-21T10:27:25.665Z,12.48
2022-09-21T10:29:54.828Z,12.54
2022-09-21T10:32:27.377Z,12.59
2022-09-21T10:35:19.081Z,12.64
2022-09-21T10:37:53.627Z,12.63
2022-09-21T10:40:30.747Z,12.56
2022-09-21T10:43:01.614Z,12.52
2022-09-21T10:45:32.467Z,12.44
2022-09-21T10:48:11.675Z,12.47
2022-09-21T10:50:45.090Z,12.52
2022-09-21T10:53:24.367Z,12.54
2022-09-21T10:56:19.363Z,12.69
2022-09-21T10:59:13.689Z,12.92
2022-09-21T11:01:46.835Z,13.00
2022-09-21T11:04:27.758Z,13.01
2022-09-21T11:07:08.581Z,12.99
2022-09-21T11:09:46.425Z,13.03
2022-09-21T11:12:41.504Z,13.05
2022-09-21T11:15:21.928Z,13.11
2022-09-21T11:18:01.807Z,13.25
2022-09-21T11:20:43.586Z,13.48
2022-09-21T11:23:25.319Z,13.66
2022-09-21T11:26:03.473Z,13.86
2022-09-21T11:28:40.808Z,14.04
2022-09-21T11:31:31.084Z,14.08
2022-09-21T11:34:51.974Z,14.13
2022-09-21T11:37:42.185Z,14.31
2022-09-21T11:40:31.477Z,14.60
2022-09-21T11:43:18.234Z,14.87
2022-09-21T11:46:01.399Z,15.15
2022-09-21T11:48:45.389Z,15.39
2022-09-21T11:51:38.353Z,15.72
2022-09-21T11:54:55.190Z,15.82
2022-09-21T11:57:28.715Z,15.75
2022-09-21T12:00:15.347Z,15.91
2022-09-21T12:03:32.827Z,16.15
2022-09-21T12:06:15.337Z,16.40
2022-09-21T12:09:09.052Z,16.68
2022-09-21T12:11:43.810Z,16.89
2022-09-21T12:14:22.714Z,17.01
2022-09-21T12:16:59.155Z,16.91
2022-09-21T12:19:35.532Z,17.08
2022-09-21T12:22:10.708Z,17.45
2022-09-21T12:24:44.992Z,17.76
2022-09-21T12:27:23.002Z,18.10
2022-09-21T12:29:57.136Z,18.42
2022-09-21T12:32:44.510Z,18.37
2022-09-21T12:35:18.473Z,18.56
2022-09-21T12:37:52.125Z,18.61
2022-09-21T12:40:27.484Z,18.92
2022-09-21T12:43:07.457Z,19.25
2022-09-21T12:45:43.146Z,19.43
2022-09-21T12:48:19.395Z,19.19
2022-09-21T12:50:51.864Z,18.69
2022-09-21T12:53:23.721Z,18.63
2022-09-21T12:56:01.044Z,18.80
2022-09-21T12:58:45.724Z,18.93
2022-09-21T13:01:34.213Z,19.13
2022-09-21T13:04:18.747Z,19.25
2022-09-21T13:07:24.977Z,19.18
2022-09-21T13:09:54.320Z,19.36
2022-09-21T13:12:28.362Z,19.26
2022-09-21T13:15:04.037Z,19.60
2022-09-21T13:17:35.789Z,20.02
2022-09-21T13:20:15.539Z,20.37
2022-09-21T13:22:46.041Z,20.83
2022-09-21T13:25:24.681Z,21.24
2022-09-21T13:28:01.318Z,21.00
2022-09-21T13:30:37.489Z,21.10
2022-09-21T13:33:33.356Z,21.47
2022-09-21T13:36:27.456Z,21.76
2022-09-21T13:39:17.317Z,22.24
2022-09-21T13:42:03.734Z,22.42
2022-09-21T13:44:43.513Z,22.38
2022-09-21T13:47:14.605Z,22.33
2022-09-21T13:49:53.280Z,22.53
2022-09-21T13:52:41.469Z,22.67
2022-09-21T13:55:26.167Z,22.92
2022-09-21T13:57:57.190Z,23.09
2022-09-21T14:00:41.538Z,23.19
2022-09-21T14:03:23.571Z,23.24
2022-09-21T14:05:55.892Z,23.20
2022-09-21T14:08:31.336Z,23.21
2022-09-21T14:11:05.506Z,23.19
2022-09-21T14:13:37.704Z,23.44
2022-09-21T14:16:31.809Z,23.67
2022-09-21T14:19:02.012Z,23.82
2022-09-21T14:21:32.652Z,23.95
2022-09-21T14:24:21.578Z,24.04
2022-09-21T14:26:56.854Z,24.18
2022-09-21T14:29:30.705Z,24.29
2022-09-21T14:32:02.692Z,24.38
2022-09-21T14:34:37.384Z,24.29
2022-09-21T14:37:27.436Z,24.16
2022-09-21T14:39:57.379Z,24.13
2022-09-21T14:42:31.818Z,24.22
2022-09-21T14:45:03.932Z,24.34
2022-09-21T14:47:51.984Z,24.38
2022-09-21T14:50:32.272Z,24.08
2022-09-21T14:53:39.120Z,23.85
2022-09-21T14:56:30.081Z,23.75
2022-09-21T14:59:15.585Z,23.93
2022-09-21T15:01:59.636Z,23.57
2022-09-21T15:04:45.891Z,23.66
2022-09-21T15:07:47.627Z,23.84
2022-09-21T15:10:49.735Z,23.88
2022-09-21T15:13:46.494Z,23.61
2022-09-21T15:16:26.486Z,23.38
2022-09-21T15:19:34.662Z,23.17
2022-09-21T15:22:17.607Z,23.04
2022-09-21T15:24:52.312Z,23.02
2022-09-21T15:27:25.402Z,22.88
2022-09-21T15:29:57.070Z,22.62
2022-09-21T15:32:40.046Z,22.47
2022-09-21T15:35:20.273Z,22.19
2022-09-21T15:37:50.842Z,21.60
2022-09-21T15:40:22.977Z,21.11
2022-09-21T15:43:05.633Z,20.37
2022-09-21T15:45:51.699Z,19.73
2022-09-21T15:48:21.642Z,19.15
2022-09-21T15:50:55.403Z,18.67
2022-09-21T15:53:29.126Z,18.18
2022-09-21T15:56:01.459Z,17.84
2022-09-21T15:58:37.100Z,17.41
2022-09-21T16:01:12.809Z,17.07
2022-09-21T16:03:42.556Z,16.70
2022-09-21T16:06:37.118Z,16.38
2022-09-21T16:09:39.502Z,16.04
2022-09-21T16:12:39.320Z,15.68
2022-09-21T16:15:29.218Z,15.46
2022-09-21T16:18:03.046Z,15.26
2022-09-21T16:20:43.335Z,15.04
2022-09-21T16:23:20.155Z,14.88
2022-09-21T16:25:57.020Z,14.68
2022-09-21T16:28:39.137Z,14.50
2022-09-21T16:31:30.814Z,14.32
2022-09-21T16:34:05.842Z,14.19
2022-09-21T16:36:46.433Z,14.01
2022-09-21T16:39:18.335Z,13.88
2022-09-21T16:41:55.972Z,13.75
2022-09-21T16:44:26.744Z,13.63
2022-09-21T16:47:00.600Z,13.50
2022-09-21T16:49:33.557Z,13.43
2022-09-21T16:52:03.469Z,13.31
2022-09-21T16:54:32.736Z,13.18
2022-09-21T16:57:03.577Z,13.05
2022-09-21T16:59:34.649Z,12.96
2022-09-21T17:02:05.957Z,12.84
2022-09-21T17:04:36.295Z,12.69
2022-09-21T17:07:06.069Z,12.60
2022-09-21T17:09:38.331Z,12.46
2022-09-21T17:12:11.328Z,12.31
2022-09-21T17:14:46.413Z,12.16
2022-09-21T17:17:22.723Z,12.08
2022-09-21T17:19:54.392Z,11.96
2022-09-21T17:22:25.528Z,11.85
2022-09-21T17:24:55.021Z,11.75
2022-09-21T17:27:26.579Z,11.62
2022-09-21T17:29:57.036Z,11.51
2022-09-21T17:32:27.875Z,11.40
2022-09-21T17:35:01.815Z,11.24
2022-09-21T17:37:32.340Z,11.11
2022-09-21T17:40:04.030Z,11.00
2022-09-21T21:22:52.061Z,4.07
2022-09-21T21:25:21.320Z,4.05
2022-09-21T21:27:50.420Z,4.04
2022-09-21T21:30:19.837Z,4.00
2022-09-21T21:32:52.210Z,3.99
2022-09-21T21:35:21.324Z,3.96
2022-09-21T21:37:53.000Z,3.90
2022-09-21T21:40:22.150Z,3.86
2022-09-21T21:42:51.270Z,3.81
2022-09-21T21:45:21.413Z,3.80
2022-09-21T21:47:50.869Z,3.74
2022-09-21T21:50:20.014Z,3.69
2022-09-21T21:52:49.113Z,3.65
2022-09-21T21:55:19.767Z,3.60
2022-09-21T21:57:49.092Z,3.57
2022-09-21T22:00:18.426Z,3.56
2022-09-21T22:02:47.671Z,3.56
2022-09-21T22:05:17.042Z,3.55
2022-09-21T22:07:46.172Z,3.52
2022-09-21T22:10:15.677Z,3.49
2022-09-21T22:12:46.125Z,3.48
2022-09-21T22:15:15.365Z,3.45
2022-09-21T22:17:44.459Z,3.40
2022-09-21T22:20:13.567Z,3.39
2022-09-21T22:22:42.817Z,3.36
2022-09-21T22:25:11.996Z,3.32
2022-09-21T22:27:41.113Z,3.28
2022-09-21T22:30:12.991Z,3.25
2022-09-21T22:32:42.157Z,3.19
2022-09-21T22:35:11.343Z,3.16
2022-09-21T22:37:40.457Z,3.12
2022-09-21T22:40:10.998Z,3.12
2022-09-21T22:42:40.098Z,3.10
2022-09-21T22:45:11.448Z,3.08
2022-09-21T22:47:41.535Z,3.04
2022-09-21T22:50:11.045Z,3.02
2022-09-21T22:52:40.146Z,3.00
2022-09-21T22:55:10.525Z,2.97
2022-09-21T22:57:39.617Z,2.94
2022-09-21T23:00:12.304Z,2.90
2022-09-21T23:02:42.260Z,2.87
2022-09-21T23:05:11.407Z,2.83
2022-09-21T23:07:40.512Z,2.80
2022-09-21T23:10:09.792Z,2.76
2022-09-21T23:12:38.901Z,2.75
2022-09-21T23:15:09.048Z,2.74
2022-09-21T23:17:39.492Z,2.72
2022-09-21T23:20:09.536Z,2.69
2022-09-21T23:22:39.236Z,2.67
2022-09-21T23:25:09.158Z,2.65
2022-09-21T23:27:38.427Z,2.64
2022-09-21T23:30:09.203Z,2.61
2022-09-21T23:32:39.668Z,2.59
2022-09-21T23:35:09.348Z,2.56
2022-09-21T23:37:38.473Z,2.53
2022-09-21T23:40:10.059Z,2.48
